sensor_id;sensor_type;location;lat;lon;timestamp;P1;durP1;ratioP1;P2;durP2;ratioP2
45326;SDS011;31062;49.678;24.560;2023-05-10T00:01:25;4.70;;;3.15;;
45326;SDS011;31062;49.678;24.560;2023-05-10T00:04:10;4.25;;;2.65;;
45326;SDS011;31062;49.678;24.560;2023-05-10T00:06:56;9.93;;;3.17;;
45326;SDS011;31062;49.678;24.560;2023-05-10T00:09:42;6.85;;;3.65;;
45326;SDS011;31062;49.678;24.560;2023-05-10T00:12:27;3.50;;;2.95;;
45326;SDS011;31062;49.678;24.560;2023-05-10T00:15:12;4.65;;;2.97;;
45326;SDS011;31062;49.678;24.560;2023-05-10T00:17:58;5.70;;;2.70;;
45326;SDS011;31062;49.678;24.560;2023-05-10T00:20:43;4.07;;;3.28;;
45326;SDS011;31062;49.678;24.560;2023-05-10T00:23:30;4.80;;;3.53;;
45326;SDS011;31062;49.678;24.560;2023-05-10T00:26:16;5.57;;;2.92;;
45326;SDS011;31062;49.678;24.560;2023-05-10T00:29:07;4.43;;;3.00;;
45326;SDS011;31062;49.678;24.560;2023-05-10T00:31:52;9.95;;;3.38;;
45326;SDS011;31062;49.678;24.560;2023-05-10T00:34:38;6.40;;;3.08;;
45326;SDS011;31062;49.678;24.560;2023-05-10T00:37:23;5.65;;;3.35;;
45326;SDS011;31062;49.678;24.560;2023-05-10T00:40:09;11.18;;;4.07;;
45326;SDS011;31062;49.678;24.560;2023-05-10T00:42:56;5.05;;;3.50;;
45326;SDS011;31062;49.678;24.560;2023-05-10T00:45:42;5.80;;;3.42;;
45326;SDS011;31062;49.678;24.560;2023-05-10T00:48:29;6.95;;;3.55;;
45326;SDS011;31062;49.678;24.560;2023-05-10T00:51:15;7.13;;;3.47;;
45326;SDS011;31062;49.678;24.560;2023-05-10T00:54:02;12.07;;;3.63;;
45326;SDS011;31062;49.678;24.560;2023-05-10T00:56:48;6.93;;;3.05;;
45326;SDS011;31062;49.678;24.560;2023-05-10T00:59:34;6.97;;;3.55;;
45326;SDS011;31062;49.678;24.560;2023-05-10T01:02:20;6.38;;;2.78;;
45326;SDS011;31062;49.678;24.560;2023-05-10T01:05:05;3.45;;;2.70;;
45326;SDS011;31062;49.678;24.560;2023-05-10T01:07:51;5.80;;;2.67;;
45326;SDS011;31062;49.678;24.560;2023-05-10T01:10:36;3.15;;;2.40;;
45326;SDS011;31062;49.678;24.560;2023-05-10T01:16:17;6.07;;;2.63;;
45326;SDS011;31062;49.678;24.560;2023-05-10T01:19:03;8.57;;;2.92;;
45326;SDS011;31062;49.678;24.560;2023-05-10T01:28:17;5.45;;;2.58;;
45326;SDS011;31062;49.678;24.560;2023-05-10T01:34:12;4.10;;;2.75;;
45326;SDS011;31062;49.678;24.560;2023-05-10T01:37:08;5.03;;;2.92;;
45326;SDS011;31062;49.678;24.560;2023-05-10T01:40:01;4.47;;;2.30;;
45326;SDS011;31062;49.678;24.560;2023-05-10T01:42:53;4.70;;;2.72;;
45326;SDS011;31062;49.678;24.560;2023-05-10T01:48:50;5.80;;;2.78;;
45326;SDS011;31062;49.678;24.560;2023-05-10T01:51:41;6.03;;;3.20;;
45326;SDS011;31062;49.678;24.560;2023-05-10T01:54:32;4.47;;;3.22;;
45326;SDS011;31062;49.678;24.560;2023-05-10T01:57:19;4.82;;;2.80;;
45326;SDS011;31062;49.678;24.560;2023-05-10T02:00:07;3.85;;;2.65;;
45326;SDS011;31062;49.678;24.560;2023-05-10T02:03:04;4.68;;;3.10;;
45326;SDS011;31062;49.678;24.560;2023-05-10T02:05:55;6.35;;;2.67;;
45326;SDS011;31062;49.678;24.560;2023-05-10T02:08:42;6.13;;;2.88;;
45326;SDS011;31062;49.678;24.560;2023-05-10T02:11:30;3.30;;;2.60;;
45326;SDS011;31062;49.678;24.560;2023-05-10T02:14:17;4.82;;;2.78;;
45326;SDS011;31062;49.678;24.560;2023-05-10T02:17:04;3.25;;;2.50;;
45326;SDS011;31062;49.678;24.560;2023-05-10T02:19:51;5.03;;;2.38;;
45326;SDS011;31062;49.678;24.560;2023-05-10T02:22:39;5.82;;;3.05;;
45326;SDS011;31062;49.678;24.560;2023-05-10T02:25:26;2.88;;;2.17;;
45326;SDS011;31062;49.678;24.560;2023-05-10T02:28:13;3.65;;;2.25;;
45326;SDS011;31062;49.678;24.560;2023-05-10T02:31:00;2.58;;;2.38;;
45326;SDS011;31062;49.678;24.560;2023-05-10T02:33:46;3.25;;;2.38;;
45326;SDS011;31062;49.678;24.560;2023-05-10T02:36:35;4.22;;;2.85;;
45326;SDS011;31062;49.678;24.560;2023-05-10T02:39:22;3.83;;;2.80;;
45326;SDS011;31062;49.678;24.560;2023-05-10T02:42:11;2.88;;;2.53;;
45326;SDS011;31062;49.678;24.560;2023-05-10T02:45:03;4.45;;;2.63;;
45326;SDS011;31062;49.678;24.560;2023-05-10T02:47:53;4.57;;;2.95;;
45326;SDS011;31062;49.678;24.560;2023-05-10T02:50:39;4.53;;;2.50;;
45326;SDS011;31062;49.678;24.560;2023-05-10T02:53:30;4.78;;;3.00;;
45326;SDS011;31062;49.678;24.560;2023-05-10T02:56:25;3.83;;;2.72;;
45326;SDS011;31062;49.678;24.560;2023-05-10T02:59:18;3.53;;;2.30;;
45326;SDS011;31062;49.678;24.560;2023-05-10T03:02:03;5.10;;;2.28;;
45326;SDS011;31062;49.678;24.560;2023-05-10T03:04:49;7.18;;;2.90;;
45326;SDS011;31062;49.678;24.560;2023-05-10T03:07:35;3.40;;;2.70;;
45326;SDS011;31062;49.678;24.560;2023-05-10T03:10:21;5.35;;;2.70;;
45326;SDS011;31062;49.678;24.560;2023-05-10T03:16:08;5.38;;;2.92;;
45326;SDS011;31062;49.678;24.560;2023-05-10T03:19:01;4.68;;;2.92;;
45326;SDS011;31062;49.678;24.560;2023-05-10T03:21:50;4.45;;;2.55;;
45326;SDS011;31062;49.678;24.560;2023-05-10T03:24:39;4.85;;;2.65;;
45326;SDS011;31062;49.678;24.560;2023-05-10T03:27:27;2.47;;;2.25;;
45326;SDS011;31062;49.678;24.560;2023-05-10T03:30:14;5.88;;;2.63;;
45326;SDS011;31062;49.678;24.560;2023-05-10T03:33:05;4.35;;;2.45;;
45326;SDS011;31062;49.678;24.560;2023-05-10T03:35:57;4.78;;;3.03;;
45326;SDS011;31062;49.678;24.560;2023-05-10T03:38:44;3.88;;;2.92;;
45326;SDS011;31062;49.678;24.560;2023-05-10T03:41:30;6.07;;;3.45;;
45326;SDS011;31062;49.678;24.560;2023-05-10T03:44:16;9.18;;;2.70;;
45326;SDS011;31062;49.678;24.560;2023-05-10T03:47:02;4.47;;;2.75;;
45326;SDS011;31062;49.678;24.560;2023-05-10T03:49:47;4.53;;;2.72;;
45326;SDS011;31062;49.678;24.560;2023-05-10T03:52:33;4.43;;;3.88;;
45326;SDS011;31062;49.678;24.560;2023-05-10T03:55:18;5.60;;;2.90;;
45326;SDS011;31062;49.678;24.560;2023-05-10T03:58:04;4.72;;;3.00;;
45326;SDS011;31062;49.678;24.560;2023-05-10T04:00:51;3.65;;;3.03;;
45326;SDS011;31062;49.678;24.560;2023-05-10T04:03:37;6.05;;;3.00;;
45326;SDS011;31062;49.678;24.560;2023-05-10T04:06:23;5.03;;;3.20;;
45326;SDS011;31062;49.678;24.560;2023-05-10T04:09:08;7.30;;;2.83;;
45326;SDS011;31062;49.678;24.560;2023-05-10T04:11:54;3.53;;;3.08;;
45326;SDS011;31062;49.678;24.560;2023-05-10T04:14:39;4.40;;;2.70;;
45326;SDS011;31062;49.678;24.560;2023-05-10T04:17:25;4.63;;;2.80;;
45326;SDS011;31062;49.678;24.560;2023-05-10T04:20:12;4.60;;;3.08;;
45326;SDS011;31062;49.678;24.560;2023-05-10T04:22:58;10.30;;;2.72;;
45326;SDS011;31062;49.678;24.560;2023-05-10T04:25:43;3.05;;;2.58;;
45326;SDS011;31062;49.678;24.560;2023-05-10T04:28:29;3.72;;;3.00;;
45326;SDS011;31062;49.678;24.560;2023-05-10T04:31:14;3.13;;;2.75;;
45326;SDS011;31062;49.678;24.560;2023-05-10T04:33:59;3.20;;;2.90;;
45326;SDS011;31062;49.678;24.560;2023-05-10T04:36:45;3.00;;;2.63;;
45326;SDS011;31062;49.678;24.560;2023-05-10T04:39:30;3.30;;;2.95;;
45326;SDS011;31062;49.678;24.560;2023-05-10T04:42:16;3.10;;;2.80;;
45326;SDS011;31062;49.678;24.560;2023-05-10T04:45:01;4.43;;;3.25;;
45326;SDS011;31062;49.678;24.560;2023-05-10T04:47:47;7.82;;;2.72;;
45326;SDS011;31062;49.678;24.560;2023-05-10T04:50:33;4.05;;;2.55;;
45326;SDS011;31062;49.678;24.560;2023-05-10T04:53:18;3.30;;;2.35;;
45326;SDS011;31062;49.678;24.560;2023-05-10T04:56:04;5.15;;;2.63;;
45326;SDS011;31062;49.678;24.560;2023-05-10T04:58:50;9.50;;;2.90;;
45326;SDS011;31062;49.678;24.560;2023-05-10T05:01:36;3.72;;;2.47;;
45326;SDS011;31062;49.678;24.560;2023-05-10T05:04:21;2.53;;;2.33;;
45326;SDS011;31062;49.678;24.560;2023-05-10T05:07:08;6.82;;;2.85;;
45326;SDS011;31062;49.678;24.560;2023-05-10T05:09:53;2.67;;;2.25;;
45326;SDS011;31062;49.678;24.560;2023-05-10T05:12:39;2.60;;;2.20;;
45326;SDS011;31062;49.678;24.560;2023-05-10T05:15:24;3.42;;;2.85;;
45326;SDS011;31062;49.678;24.560;2023-05-10T05:18:10;3.53;;;2.58;;
45326;SDS011;31062;49.678;24.560;2023-05-10T05:20:55;7.00;;;2.75;;
45326;SDS011;31062;49.678;24.560;2023-05-10T05:23:41;6.03;;;2.88;;
45326;SDS011;31062;49.678;24.560;2023-05-10T05:26:26;4.35;;;2.38;;
45326;SDS011;31062;49.678;24.560;2023-05-10T05:29:12;5.68;;;2.42;;
45326;SDS011;31062;49.678;24.560;2023-05-10T05:31:58;9.25;;;3.10;;
45326;SDS011;31062;49.678;24.560;2023-05-10T05:34:46;5.95;;;2.72;;
45326;SDS011;31062;49.678;24.560;2023-05-10T05:37:32;6.55;;;2.72;;
45326;SDS011;31062;49.678;24.560;2023-05-10T05:40:18;4.65;;;2.55;;
45326;SDS011;31062;49.678;24.560;2023-05-10T05:43:03;7.18;;;3.90;;
45326;SDS011;31062;49.678;24.560;2023-05-10T05:45:48;5.00;;;3.78;;
45326;SDS011;31062;49.678;24.560;2023-05-10T05:48:34;4.15;;;2.83;;
45326;SDS011;31062;49.678;24.560;2023-05-10T05:51:20;5.78;;;2.92;;
45326;SDS011;31062;49.678;24.560;2023-05-10T05:54:05;4.80;;;2.60;;
45326;SDS011;31062;49.678;24.560;2023-05-10T05:56:53;9.10;;;2.63;;
45326;SDS011;31062;49.678;24.560;2023-05-10T05:59:40;9.88;;;2.53;;
45326;SDS011;31062;49.678;24.560;2023-05-10T06:02:28;5.38;;;1.50;;
45326;SDS011;31062;49.678;24.560;2023-05-10T06:05:14;4.35;;;1.70;;
45326;SDS011;31062;49.678;24.560;2023-05-10T06:08:01;2.25;;;1.92;;
45326;SDS011;31062;49.678;24.560;2023-05-10T06:10:46;2.72;;;1.73;;
45326;SDS011;31062;49.678;24.560;2023-05-10T06:13:32;11.68;;;1.98;;
45326;SDS011;31062;49.678;24.560;2023-05-10T06:16:18;1.80;;;1.70;;
45326;SDS011;31062;49.678;24.560;2023-05-10T06:19:03;4.35;;;1.75;;
45326;SDS011;31062;49.678;24.560;2023-05-10T06:21:49;4.05;;;1.80;;
45326;SDS011;31062;49.678;24.560;2023-05-10T06:24:38;5.43;;;1.80;;
45326;SDS011;31062;49.678;24.560;2023-05-10T06:27:23;4.32;;;2.20;;
45326;SDS011;31062;49.678;24.560;2023-05-10T06:30:10;9.07;;;1.88;;
45326;SDS011;31062;49.678;24.560;2023-05-10T06:32:57;4.50;;;1.70;;
45326;SDS011;31062;49.678;24.560;2023-05-10T06:35:43;2.38;;;1.65;;
45326;SDS011;31062;49.678;24.560;2023-05-10T06:38:29;9.25;;;1.60;;
45326;SDS011;31062;49.678;24.560;2023-05-10T06:41:14;3.20;;;1.58;;
45326;SDS011;31062;49.678;24.560;2023-05-10T06:44:00;1.90;;;1.80;;
45326;SDS011;31062;49.678;24.560;2023-05-10T06:46:45;6.55;;;1.77;;
45326;SDS011;31062;49.678;24.560;2023-05-10T06:49:31;1.45;;;1.35;;
45326;SDS011;31062;49.678;24.560;2023-05-10T06:52:17;2.83;;;1.70;;
45326;SDS011;31062;49.678;24.560;2023-05-10T06:55:03;2.63;;;1.88;;
45326;SDS011;31062;49.678;24.560;2023-05-10T06:57:49;6.45;;;1.60;;
45326;SDS011;31062;49.678;24.560;2023-05-10T07:00:35;6.35;;;1.52;;
45326;SDS011;31062;49.678;24.560;2023-05-10T07:03:25;2.20;;;1.80;;
45326;SDS011;31062;49.678;24.560;2023-05-10T07:06:12;1.70;;;1.40;;
45326;SDS011;31062;49.678;24.560;2023-05-10T07:09:17;3.40;;;1.98;;
45326;SDS011;31062;49.678;24.560;2023-05-10T07:12:03;4.13;;;1.40;;
45326;SDS011;31062;49.678;24.560;2023-05-10T07:14:48;1.95;;;1.50;;
45326;SDS011;31062;49.678;24.560;2023-05-10T07:17:34;4.55;;;1.83;;
45326;SDS011;31062;49.678;24.560;2023-05-10T07:20:20;2.20;;;1.48;;
45326;SDS011;31062;49.678;24.560;2023-05-10T07:23:06;4.57;;;1.30;;
45326;SDS011;31062;49.678;24.560;2023-05-10T07:25:51;4.57;;;1.52;;
45326;SDS011;31062;49.678;24.560;2023-05-10T07:28:37;4.00;;;1.77;;
45326;SDS011;31062;49.678;24.560;2023-05-10T07:31:23;1.88;;;1.55;;
45326;SDS011;31062;49.678;24.560;2023-05-10T07:34:08;10.00;;;1.52;;
45326;SDS011;31062;49.678;24.560;2023-05-10T07:36:54;2.53;;;1.67;;
45326;SDS011;31062;49.678;24.560;2023-05-10T07:39:39;4.22;;;1.80;;
45326;SDS011;31062;49.678;24.560;2023-05-10T07:42:25;4.57;;;2.03;;
45326;SDS011;31062;49.678;24.560;2023-05-10T07:45:10;1.58;;;1.48;;
45326;SDS011;31062;49.678;24.560;2023-05-10T07:47:56;1.55;;;1.45;;
45326;SDS011;31062;49.678;24.560;2023-05-10T07:50:42;1.92;;;1.52;;
45326;SDS011;31062;49.678;24.560;2023-05-10T07:53:27;1.50;;;1.40;;
45326;SDS011;31062;49.678;24.560;2023-05-10T07:56:23;4.28;;;1.27;;
45326;SDS011;31062;49.678;24.560;2023-05-10T07:59:14;4.00;;;1.45;;
45326;SDS011;31062;49.678;24.560;2023-05-10T08:04:49;1.88;;;1.42;;
45326;SDS011;31062;49.678;24.560;2023-05-10T08:07:34;9.60;;;1.52;;
45326;SDS011;31062;49.678;24.560;2023-05-10T08:10:20;1.90;;;1.80;;
45326;SDS011;31062;49.678;24.560;2023-05-10T08:13:06;1.77;;;1.48;;
45326;SDS011;31062;49.678;24.560;2023-05-10T08:15:51;3.30;;;1.50;;
45326;SDS011;31062;49.678;24.560;2023-05-10T08:18:38;1.33;;;1.20;;
45326;SDS011;31062;49.678;24.560;2023-05-10T08:21:25;4.93;;;1.70;;
45326;SDS011;31062;49.678;24.560;2023-05-10T08:24:11;2.40;;;1.27;;
45326;SDS011;31062;49.678;24.560;2023-05-10T08:26:56;1.27;;;1.17;;
45326;SDS011;31062;49.678;24.560;2023-05-10T08:29:42;2.67;;;1.40;;
45326;SDS011;31062;49.678;24.560;2023-05-10T08:32:34;2.72;;;1.30;;
45326;SDS011;31062;49.678;24.560;2023-05-10T08:35:20;1.17;;;1.05;;
45326;SDS011;31062;49.678;24.560;2023-05-10T08:38:06;3.35;;;1.48;;
45326;SDS011;31062;49.678;24.560;2023-05-10T08:40:52;1.83;;;1.63;;
45326;SDS011;31062;49.678;24.560;2023-05-10T08:43:42;4.03;;;1.40;;
45326;SDS011;31062;49.678;24.560;2023-05-10T08:46:31;5.25;;;1.50;;
45326;SDS011;31062;49.678;24.560;2023-05-10T08:49:20;6.57;;;2.08;;
45326;SDS011;31062;49.678;24.560;2023-05-10T08:52:06;4.70;;;1.98;;
45326;SDS011;31062;49.678;24.560;2023-05-10T08:54:53;3.72;;;1.58;;
45326;SDS011;31062;49.678;24.560;2023-05-10T08:57:39;2.50;;;1.80;;
45326;SDS011;31062;49.678;24.560;2023-05-10T09:00:25;4.28;;;1.20;;
45326;SDS011;31062;49.678;24.560;2023-05-10T09:03:11;2.75;;;1.58;;
45326;SDS011;31062;49.678;24.560;2023-05-10T09:05:57;1.40;;;1.30;;
45326;SDS011;31062;49.678;24.560;2023-05-10T09:08:43;1.67;;;1.23;;
45326;SDS011;31062;49.678;24.560;2023-05-10T09:11:31;1.55;;;1.20;;
45326;SDS011;31062;49.678;24.560;2023-05-10T09:14:17;3.75;;;1.42;;
45326;SDS011;31062;49.678;24.560;2023-05-10T09:17:04;13.60;;;2.28;;
45326;SDS011;31062;49.678;24.560;2023-05-10T09:19:50;1.30;;;1.20;;
45326;SDS011;31062;49.678;24.560;2023-05-10T09:22:41;1.23;;;1.20;;
45326;SDS011;31062;49.678;24.560;2023-05-10T09:25:27;3.50;;;1.50;;
45326;SDS011;31062;49.678;24.560;2023-05-10T09:28:12;3.30;;;1.30;;
45326;SDS011;31062;49.678;24.560;2023-05-10T09:30:58;2.15;;;1.77;;
45326;SDS011;31062;49.678;24.560;2023-05-10T09:33:47;1.67;;;1.42;;
45326;SDS011;31062;49.678;24.560;2023-05-10T09:36:34;1.40;;;1.30;;
45326;SDS011;31062;49.678;24.560;2023-05-10T09:39:19;1.27;;;1.02;;
45326;SDS011;31062;49.678;24.560;2023-05-10T09:42:06;1.25;;;1.15;;
45326;SDS011;31062;49.678;24.560;2023-05-10T09:44:52;1.90;;;1.50;;
45326;SDS011;31062;49.678;24.560;2023-05-10T09:47:38;5.47;;;1.23;;
45326;SDS011;31062;49.678;24.560;2023-05-10T09:50:24;1.70;;;1.38;;
45326;SDS011;31062;49.678;24.560;2023-05-10T09:53:10;2.17;;;1.30;;
45326;SDS011;31062;49.678;24.560;2023-05-10T09:56:00;2.03;;;1.10;;
45326;SDS011;31062;49.678;24.560;2023-05-10T09:58:46;3.70;;;1.20;;
45326;SDS011;31062;49.678;24.560;2023-05-10T10:01:50;3.10;;;1.30;;
45326;SDS011;31062;49.678;24.560;2023-05-10T10:04:39;2.15;;;1.42;;
45326;SDS011;31062;49.678;24.560;2023-05-10T10:07:26;3.13;;;1.60;;
45326;SDS011;31062;49.678;24.560;2023-05-10T10:10:12;2.05;;;1.77;;
45326;SDS011;31062;49.678;24.560;2023-05-10T10:12:58;2.85;;;1.50;;
45326;SDS011;31062;49.678;24.560;2023-05-10T10:15:44;1.35;;;1.10;;
45326;SDS011;31062;49.678;24.560;2023-05-10T10:18:32;2.40;;;1.30;;
45326;SDS011;31062;49.678;24.560;2023-05-10T10:21:18;2.97;;;1.90;;
45326;SDS011;31062;49.678;24.560;2023-05-10T10:24:04;3.65;;;1.33;;
45326;SDS011;31062;49.678;24.560;2023-05-10T10:26:53;3.05;;;1.25;;
45326;SDS011;31062;49.678;24.560;2023-05-10T10:30:05;6.50;;;1.75;;
45326;SDS011;31062;49.678;24.560;2023-05-10T10:36:16;1.30;;;1.20;;
45326;SDS011;31062;49.678;24.560;2023-05-10T10:39:07;3.17;;;1.10;;
45326;SDS011;31062;49.678;24.560;2023-05-10T10:41:56;1.25;;;1.05;;
45326;SDS011;31062;49.678;24.560;2023-05-10T10:44:42;3.50;;;1.35;;
45326;SDS011;31062;49.678;24.560;2023-05-10T10:47:29;2.10;;;1.60;;
45326;SDS011;31062;49.678;24.560;2023-05-10T10:50:18;4.50;;;1.20;;
45326;SDS011;31062;49.678;24.560;2023-05-10T10:53:10;1.90;;;1.30;;
45326;SDS011;31062;49.678;24.560;2023-05-10T10:56:12;3.90;;;1.38;;
45326;SDS011;31062;49.678;24.560;2023-05-10T10:58:59;1.65;;;1.30;;
45326;SDS011;31062;49.678;24.560;2023-05-10T11:01:45;2.38;;;1.50;;
45326;SDS011;31062;49.678;24.560;2023-05-10T11:04:41;1.42;;;1.10;;
45326;SDS011;31062;49.678;24.560;2023-05-10T11:07:28;3.25;;;1.48;;
45326;SDS011;31062;49.678;24.560;2023-05-10T11:10:13;1.38;;;1.23;;
45326;SDS011;31062;49.678;24.560;2023-05-10T11:13:06;2.75;;;1.25;;
45326;SDS011;31062;49.678;24.560;2023-05-10T11:15:53;2.42;;;1.58;;
45326;SDS011;31062;49.678;24.560;2023-05-10T11:18:38;7.35;;;1.63;;
45326;SDS011;31062;49.678;24.560;2023-05-10T11:21:25;2.08;;;1.40;;
45326;SDS011;31062;49.678;24.560;2023-05-10T11:24:18;4.28;;;1.38;;
45326;SDS011;31062;49.678;24.560;2023-05-10T11:27:05;1.73;;;1.40;;
45326;SDS011;31062;49.678;24.560;2023-05-10T11:29:51;1.20;;;1.10;;
45326;SDS011;31062;49.678;24.560;2023-05-10T11:32:38;3.63;;;1.30;;
45326;SDS011;31062;49.678;24.560;2023-05-10T11:35:27;1.20;;;1.20;;
45326;SDS011;31062;49.678;24.560;2023-05-10T11:38:13;3.70;;;1.40;;
45326;SDS011;31062;49.678;24.560;2023-05-10T11:40:59;1.98;;;1.38;;
45326;SDS011;31062;49.678;24.560;2023-05-10T11:43:49;1.77;;;1.27;;
45326;SDS011;31062;49.678;24.560;2023-05-10T11:46:35;3.92;;;3.17;;
45326;SDS011;31062;49.678;24.560;2023-05-10T11:49:21;5.85;;;1.25;;
45326;SDS011;31062;49.678;24.560;2023-05-10T11:52:09;0.93;;;0.93;;
45326;SDS011;31062;49.678;24.560;2023-05-10T11:54:57;2.00;;;1.48;;
45326;SDS011;31062;49.678;24.560;2023-05-10T11:57:42;1.70;;;1.20;;
45326;SDS011;31062;49.678;24.560;2023-05-10T12:00:31;3.30;;;1.38;;
45326;SDS011;31062;49.678;24.560;2023-05-10T12:03:17;2.22;;;1.17;;
45326;SDS011;31062;49.678;24.560;2023-05-10T12:06:03;2.45;;;1.25;;
45326;SDS011;31062;49.678;24.560;2023-05-10T12:08:49;1.38;;;1.13;;
45326;SDS011;31062;49.678;24.560;2023-05-10T12:11:39;2.70;;;1.42;;
45326;SDS011;31062;49.678;24.560;2023-05-10T12:14:28;2.75;;;1.50;;
45326;SDS011;31062;49.678;24.560;2023-05-10T12:17:18;1.48;;;1.38;;
45326;SDS011;31062;49.678;24.560;2023-05-10T12:20:16;1.38;;;1.17;;
45326;SDS011;31062;49.678;24.560;2023-05-10T12:23:04;1.30;;;1.15;;
45326;SDS011;31062;49.678;24.560;2023-05-10T12:25:50;1.88;;;1.50;;
45326;SDS011;31062;49.678;24.560;2023-05-10T12:28:37;1.83;;;1.45;;
45326;SDS011;31062;49.678;24.560;2023-05-10T12:31:24;2.35;;;1.30;;
45326;SDS011;31062;49.678;24.560;2023-05-10T12:34:10;5.10;;;2.55;;
45326;SDS011;31062;49.678;24.560;2023-05-10T12:36:55;3.35;;;1.70;;
45326;SDS011;31062;49.678;24.560;2023-05-10T12:39:41;4.20;;;2.10;;
45326;SDS011;31062;49.678;24.560;2023-05-10T12:42:28;1.58;;;1.42;;
45326;SDS011;31062;49.678;24.560;2023-05-10T12:45:15;2.22;;;1.27;;
45326;SDS011;31062;49.678;24.560;2023-05-10T12:48:04;2.47;;;1.65;;
45326;SDS011;31062;49.678;24.560;2023-05-10T12:50:59;3.15;;;1.60;;
45326;SDS011;31062;49.678;24.560;2023-05-10T12:53:47;1.17;;;1.08;;
45326;SDS011;31062;49.678;24.560;2023-05-10T12:56:34;3.17;;;1.77;;
45326;SDS011;31062;49.678;24.560;2023-05-10T12:59:20;5.10;;;1.02;;
45326;SDS011;31062;49.678;24.560;2023-05-10T13:02:08;2.80;;;1.50;;
45326;SDS011;31062;49.678;24.560;2023-05-10T13:04:57;3.40;;;1.27;;
45326;SDS011;31062;49.678;24.560;2023-05-10T13:07:42;4.25;;;1.15;;
45326;SDS011;31062;49.678;24.560;2023-05-10T13:10:29;3.45;;;1.40;;
45326;SDS011;31062;49.678;24.560;2023-05-10T13:13:16;2.33;;;1.40;;
45326;SDS011;31062;49.678;24.560;2023-05-10T13:16:01;3.25;;;1.42;;
45326;SDS011;31062;49.678;24.560;2023-05-10T13:18:46;1.38;;;1.15;;
45326;SDS011;31062;49.678;24.560;2023-05-10T13:21:32;2.85;;;1.48;;
45326;SDS011;31062;49.678;24.560;2023-05-10T13:24:17;1.75;;;1.60;;
45326;SDS011;31062;49.678;24.560;2023-05-10T13:27:02;5.10;;;1.27;;
45326;SDS011;31062;49.678;24.560;2023-05-10T13:29:48;4.30;;;1.63;;
45326;SDS011;31062;49.678;24.560;2023-05-10T13:32:33;2.90;;;1.27;;
45326;SDS011;31062;49.678;24.560;2023-05-10T13:35:19;5.47;;;1.08;;
45326;SDS011;31062;49.678;24.560;2023-05-10T13:38:05;3.63;;;1.70;;
45326;SDS011;31062;49.678;24.560;2023-05-10T13:40:53;3.70;;;1.50;;
45326;SDS011;31062;49.678;24.560;2023-05-10T13:43:39;1.35;;;1.25;;
45326;SDS011;31062;49.678;24.560;2023-05-10T13:46:25;2.33;;;1.50;;
45326;SDS011;31062;49.678;24.560;2023-05-10T13:49:10;2.15;;;1.50;;
45326;SDS011;31062;49.678;24.560;2023-05-10T13:51:56;3.90;;;1.38;;
45326;SDS011;31062;49.678;24.560;2023-05-10T13:54:42;1.40;;;1.30;;
45326;SDS011;31062;49.678;24.560;2023-05-10T13:57:27;3.22;;;1.00;;
45326;SDS011;31062;49.678;24.560;2023-05-10T14:00:15;2.08;;;1.55;;
45326;SDS011;31062;49.678;24.560;2023-05-10T14:03:02;1.33;;;1.00;;
45326;SDS011;31062;49.678;24.560;2023-05-10T14:05:47;1.20;;;1.05;;
45326;SDS011;31062;49.678;24.560;2023-05-10T14:08:33;1.33;;;1.05;;
45326;SDS011;31062;49.678;24.560;2023-05-10T14:11:20;6.28;;;1.50;;
45326;SDS011;31062;49.678;24.560;2023-05-10T14:14:09;2.75;;;1.30;;
45326;SDS011;31062;49.678;24.560;2023-05-10T14:16:55;2.05;;;1.65;;
45326;SDS011;31062;49.678;24.560;2023-05-10T14:19:40;1.35;;;1.15;;
45326;SDS011;31062;49.678;24.560;2023-05-10T14:22:25;5.93;;;1.02;;
45326;SDS011;31062;49.678;24.560;2023-05-10T14:25:11;1.10;;;1.00;;
45326;SDS011;31062;49.678;24.560;2023-05-10T14:27:57;5.65;;;2.08;;
45326;SDS011;31062;49.678;24.560;2023-05-10T14:30:43;3.88;;;1.30;;
45326;SDS011;31062;49.678;24.560;2023-05-10T14:33:28;2.72;;;1.38;;
45326;SDS011;31062;49.678;24.560;2023-05-10T14:36:13;4.20;;;1.42;;
45326;SDS011;31062;49.678;24.560;2023-05-10T14:38:59;1.80;;;1.40;;
45326;SDS011;31062;49.678;24.560;2023-05-10T14:41:44;6.35;;;1.90;;
45326;SDS011;31062;49.678;24.560;2023-05-10T14:44:31;1.38;;;1.27;;
45326;SDS011;31062;49.678;24.560;2023-05-10T14:47:16;6.47;;;1.80;;
45326;SDS011;31062;49.678;24.560;2023-05-10T14:50:02;1.90;;;1.05;;
45326;SDS011;31062;49.678;24.560;2023-05-10T14:52:47;2.00;;;1.23;;
45326;SDS011;31062;49.678;24.560;2023-05-10T14:55:32;3.47;;;1.42;;
45326;SDS011;31062;49.678;24.560;2023-05-10T14:58:19;3.85;;;1.73;;
45326;SDS011;31062;49.678;24.560;2023-05-10T15:01:05;3.70;;;1.67;;
45326;SDS011;31062;49.678;24.560;2023-05-10T15:03:51;3.58;;;1.42;;
45326;SDS011;31062;49.678;24.560;2023-05-10T15:06:37;1.13;;;1.02;;
45326;SDS011;31062;49.678;24.560;2023-05-10T15:09:23;6.97;;;1.58;;
45326;SDS011;31062;49.678;24.560;2023-05-10T15:12:08;6.63;;;1.77;;
45326;SDS011;31062;49.678;24.560;2023-05-10T15:14:54;5.38;;;1.77;;
45326;SDS011;31062;49.678;24.560;2023-05-10T15:17:39;2.22;;;1.30;;
45326;SDS011;31062;49.678;24.560;2023-05-10T15:20:25;1.85;;;1.27;;
45326;SDS011;31062;49.678;24.560;2023-05-10T15:23:11;1.90;;;1.30;;
45326;SDS011;31062;49.678;24.560;2023-05-10T15:25:56;2.35;;;1.45;;
45326;SDS011;31062;49.678;24.560;2023-05-10T15:28:42;4.88;;;1.77;;
45326;SDS011;31062;49.678;24.560;2023-05-10T15:31:28;3.75;;;1.00;;
45326;SDS011;31062;49.678;24.560;2023-05-10T15:34:13;1.67;;;1.15;;
45326;SDS011;31062;49.678;24.560;2023-05-10T15:36:59;3.42;;;1.42;;
45326;SDS011;31062;49.678;24.560;2023-05-10T15:39:44;1.20;;;1.10;;
45326;SDS011;31062;49.678;24.560;2023-05-10T15:42:30;2.40;;;1.30;;
45326;SDS011;31062;49.678;24.560;2023-05-10T15:45:17;2.72;;;1.13;;
45326;SDS011;31062;49.678;24.560;2023-05-10T15:48:04;3.72;;;1.60;;
45326;SDS011;31062;49.678;24.560;2023-05-10T15:50:49;2.42;;;1.30;;
45326;SDS011;31062;49.678;24.560;2023-05-10T15:53:34;2.08;;;1.27;;
45326;SDS011;31062;49.678;24.560;2023-05-10T15:56:20;4.70;;;1.42;;
45326;SDS011;31062;49.678;24.560;2023-05-10T15:59:06;2.13;;;1.15;;
45326;SDS011;31062;49.678;24.560;2023-05-10T16:01:52;1.30;;;1.20;;
45326;SDS011;31062;49.678;24.560;2023-05-10T16:04:37;1.48;;;1.02;;
45326;SDS011;31062;49.678;24.560;2023-05-10T16:07:23;2.08;;;1.33;;
45326;SDS011;31062;49.678;24.560;2023-05-10T16:10:09;1.27;;;1.17;;
45326;SDS011;31062;49.678;24.560;2023-05-10T16:12:55;2.17;;;1.35;;
45326;SDS011;31062;49.678;24.560;2023-05-10T16:15:41;1.10;;;1.00;;
45326;SDS011;31062;49.678;24.560;2023-05-10T16:18:27;1.35;;;1.23;;
45326;SDS011;31062;49.678;24.560;2023-05-10T16:21:13;1.95;;;1.33;;
45326;SDS011;31062;49.678;24.560;2023-05-10T16:23:59;2.95;;;1.15;;
45326;SDS011;31062;49.678;24.560;2023-05-10T16:26:45;2.20;;;1.23;;
45326;SDS011;31062;49.678;24.560;2023-05-10T16:29:31;5.95;;;1.40;;
45326;SDS011;31062;49.678;24.560;2023-05-10T16:32:17;1.42;;;1.10;;
45326;SDS011;31062;49.678;24.560;2023-05-10T16:35:03;1.17;;;0.93;;
45326;SDS011;31062;49.678;24.560;2023-05-10T16:37:49;1.50;;;1.30;;
45326;SDS011;31062;49.678;24.560;2023-05-10T16:40:35;2.67;;;1.30;;
45326;SDS011;31062;49.678;24.560;2023-05-10T16:43:21;1.50;;;1.40;;
45326;SDS011;31062;49.678;24.560;2023-05-10T16:46:10;2.15;;;1.60;;
45326;SDS011;31062;49.678;24.560;2023-05-10T16:48:56;1.52;;;1.15;;
45326;SDS011;31062;49.678;24.560;2023-05-10T16:51:44;2.75;;;1.70;;
45326;SDS011;31062;49.678;24.560;2023-05-10T16:54:29;2.63;;;1.63;;